createdAt,value
2022-09-15T00:00:07.126Z,16.50
2022-09-15T00:02:33.932Z,16.40
2022-09-15T00:05:00.835Z,16.30
2022-09-15T00:07:27.644Z,16.30
2022-09-15T00:09:54.327Z,16.30
2022-09-15T00:12:21.089Z,16.30
2022-09-15T00:14:47.837Z,16.30
2022-09-15T00:17:14.635Z,16.30
2022-09-15T00:19:41.417Z,16.30
2022-09-15T00:22:08.068Z,16.30
2022-09-15T00:24:35.892Z,16.30
2022-09-15T00:27:03.302Z,16.20
2022-09-15T00:29:30.148Z,16.20
2022-09-15T00:31:56.850Z,16.20
2022-09-15T00:34:23.664Z,16.20
2022-09-15T00:36:50.381Z,16.20
2022-09-15T00:39:17.293Z,16.20
2022-09-15T00:41:43.984Z,16.20
2022-09-15T00:44:16.754Z,16.20
2022-09-15T00:46:58.731Z,16.20
2022-09-15T00:49:37.208Z,16.20
2022-09-15T00:52:42.050Z,16.20
2022-09-15T00:55:32.112Z,16.10
2022-09-15T00:58:06.670Z,16.10
2022-09-15T01:00:34.424Z,16.00
2022-09-15T01:03:01.791Z,16.00
2022-09-15T01:05:36.840Z,15.90
2022-09-15T01:08:17.592Z,15.90
2022-09-15T01:10:45.221Z,16.00
2022-09-15T01:13:14.316Z,15.90
2022-09-15T01:16:13.597Z,15.90
2022-09-15T01:19:02.900Z,15.90
2022-09-15T01:21:42.658Z,15.90
2022-09-15T01:24:45.166Z,15.90
2022-09-15T01:27:42.401Z,15.80
2022-09-15T01:30:13.959Z,15.80
2022-09-15T01:33:04.924Z,15.80
2022-09-15T01:35:56.188Z,15.80
2022-09-15T01:38:41.454Z,15.80
2022-09-15T01:41:14.348Z,15.70
2022-09-15T01:44:12.335Z,15.60
2022-09-15T01:46:54.388Z,15.60
2022-09-15T01:49:25.328Z,15.60
2022-09-15T01:51:53.932Z,15.50
2022-09-15T01:54:26.256Z,15.50
2022-09-15T01:56:52.953Z,15.50
2022-09-15T01:59:19.715Z,15.50
2022-09-15T02:01:52.068Z,15.50
2022-09-15T02:04:50.597Z,15.60
2022-09-15T02:07:31.846Z,15.50
2022-09-15T02:10:17.673Z,15.50
2022-09-15T02:13:11.181Z,15.50
2022-09-15T02:15:43.540Z,15.50
2022-09-15T02:18:14.652Z,15.50
2022-09-15T02:20:58.476Z,15.40
2022-09-15T02:23:31.289Z,15.40
2022-09-15T02:26:05.035Z,15.30
2022-09-15T02:28:34.969Z,15.30
2022-09-15T02:31:04.901Z,15.30
2022-09-15T02:33:41.100Z,15.30
2022-09-15T02:36:10.924Z,15.20
2022-09-15T02:38:42.189Z,15.20
2022-09-15T02:41:08.986Z,15.20
2022-09-15T02:43:47.822Z,15.20
2022-09-15T02:46:16.313Z,15.10
2022-09-15T02:48:42.968Z,15.10
2022-09-15T02:51:09.845Z,15.00
2022-09-15T02:53:36.931Z,15.00
2022-09-15T02:56:06.525Z,14.90
2022-09-15T02:58:36.410Z,14.80
2022-09-15T03:01:05.625Z,14.80
2022-09-15T03:03:33.709Z,14.80
2022-09-15T03:06:16.426Z,14.80
2022-09-15T03:08:47.007Z,14.80
2022-09-15T03:11:14.448Z,14.70
2022-09-15T03:13:41.139Z,14.70
2022-09-15T03:16:09.860Z,14.70
2022-09-15T03:18:37.630Z,14.70
2022-09-15T03:21:06.191Z,14.60
2022-09-15T03:23:33.250Z,14.60
2022-09-15T03:26:00.009Z,14.60
2022-09-15T03:28:27.149Z,14.60
2022-09-15T03:30:54.609Z,14.60
2022-09-15T03:33:22.067Z,14.50
2022-09-15T03:35:50.386Z,14.50
2022-09-15T03:38:17.552Z,14.50
2022-09-15T03:40:45.003Z,14.50
2022-09-15T03:43:16.635Z,14.50
2022-09-15T03:45:45.252Z,14.40
2022-09-15T03:48:11.941Z,14.40
2022-09-15T03:50:38.517Z,14.40
2022-09-15T03:53:05.220Z,14.40
2022-09-15T03:55:31.808Z,14.40
2022-09-15T03:57:58.436Z,14.40
2022-09-15T04:00:25.025Z,14.40
2022-09-15T04:02:51.705Z,14.40
2022-09-15T04:05:18.381Z,14.30
2022-09-15T04:07:45.243Z,14.30
2022-09-15T04:10:16.323Z,14.30
2022-09-15T04:12:44.239Z,14.20
2022-09-15T04:15:10.998Z,14.20
2022-09-15T04:17:37.620Z,14.20
2022-09-15T04:20:04.414Z,14.10
2022-09-15T04:22:32.099Z,14.10
2022-09-15T04:24:58.724Z,14.10
2022-09-15T04:27:25.315Z,14.10
2022-09-15T04:29:52.891Z,14.00
2022-09-15T04:32:20.594Z,14.00
2022-09-15T04:34:47.382Z,13.90
2022-09-15T04:37:14.021Z,13.90
2022-09-15T04:39:40.637Z,13.80
2022-09-15T04:42:07.788Z,13.80
2022-09-15T04:44:34.405Z,13.80
2022-09-15T04:47:01.059Z,13.70
2022-09-15T04:49:28.843Z,13.70
2022-09-15T04:51:55.480Z,13.60
2022-09-15T04:54:22.125Z,13.60
2022-09-15T04:56:49.324Z,13.50
2022-09-15T04:59:17.588Z,13.50
2022-09-15T05:01:44.947Z,13.40
2022-09-15T05:04:12.177Z,13.40
2022-09-15T05:06:39.288Z,13.40
2022-09-15T05:09:10.453Z,13.30
2022-09-15T05:11:37.838Z,13.30
2022-09-15T05:14:04.924Z,13.20
2022-09-15T05:16:31.896Z,13.20
2022-09-15T05:19:00.898Z,13.20
2022-09-15T05:21:27.999Z,13.10
2022-09-15T05:23:55.115Z,13.10
2022-09-15T05:26:24.497Z,13.10
2022-09-15T05:28:51.843Z,13.00
2022-09-15T05:31:28.184Z,13.00
2022-09-15T05:33:55.316Z,13.00
2022-09-15T05:36:25.572Z,13.00
2022-09-15T05:38:58.882Z,12.90
2022-09-15T05:41:27.123Z,12.90
2022-09-15T05:43:56.864Z,12.90
2022-09-15T05:46:26.047Z,12.90
2022-09-15T05:48:55.982Z,12.90
2022-09-15T05:51:23.027Z,12.80
2022-09-15T05:53:50.838Z,12.80
2022-09-15T05:56:18.599Z,12.80
2022-09-15T05:58:47.352Z,12.80
2022-09-15T06:01:19.801Z,12.80
2022-09-15T06:03:47.241Z,12.80
2022-09-15T06:06:14.169Z,12.80
2022-09-15T06:08:44.382Z,12.80
2022-09-15T06:11:13.928Z,12.80
2022-09-15T06:13:40.668Z,12.80
2022-09-15T06:16:10.263Z,12.80
2022-09-15T06:18:38.598Z,12.80
2022-09-15T06:21:08.100Z,12.80
2022-09-15T06:23:35.295Z,12.90
2022-09-15T06:26:11.335Z,12.90
2022-09-15T06:28:39.672Z,13.00
2022-09-15T06:31:11.452Z,13.00
2022-09-15T06:33:42.784Z,13.00
2022-09-15T06:36:11.664Z,13.00
2022-09-15T06:38:39.515Z,13.10
2022-09-15T06:41:10.041Z,13.10
2022-09-15T06:43:37.124Z,13.10
2022-09-15T06:46:07.474Z,13.20
2022-09-15T06:48:35.004Z,13.20
2022-09-15T06:51:02.393Z,13.30
2022-09-15T06:53:34.526Z,13.30
2022-09-15T06:56:13.031Z,13.30
2022-09-15T06:58:40.818Z,13.30
2022-09-15T07:01:19.914Z,13.30
2022-09-15T07:03:46.728Z,13.40
2022-09-15T07:06:13.521Z,13.40
2022-09-15T07:08:40.967Z,13.40
2022-09-15T07:11:08.938Z,13.50
2022-09-15T07:13:36.071Z,13.50
2022-09-15T07:16:04.751Z,13.50
2022-09-15T07:18:32.420Z,13.60
2022-09-15T07:21:01.099Z,13.60
2022-09-15T07:23:28.255Z,13.60
2022-09-15T07:26:12.907Z,13.70
2022-09-15T07:28:42.231Z,13.70
2022-09-15T07:31:11.336Z,13.70
2022-09-15T07:33:38.543Z,13.80
2022-09-15T07:36:06.994Z,13.80
2022-09-15T07:38:34.424Z,13.90
2022-09-15T07:41:09.939Z,14.00
2022-09-15T07:43:36.951Z,14.00
2022-09-15T07:46:04.314Z,14.00
2022-09-15T07:48:31.948Z,14.10
2022-09-15T07:51:01.718Z,14.20
2022-09-15T07:53:29.720Z,14.30
2022-09-15T07:55:57.091Z,14.30
2022-09-15T07:58:23.837Z,14.40
2022-09-15T08:00:50.870Z,14.40
2022-09-15T08:03:17.673Z,14.50
2022-09-15T08:05:45.735Z,14.60
2022-09-15T08:08:12.812Z,14.70
2022-09-15T08:10:41.343Z,14.70
2022-09-15T08:13:08.245Z,14.80
2022-09-15T08:15:38.723Z,14.80
2022-09-15T08:18:06.099Z,14.90
2022-09-15T08:20:33.521Z,14.90
2022-09-15T08:23:00.316Z,15.00
2022-09-15T08:25:27.230Z,15.00
2022-09-15T08:27:54.995Z,15.10
2022-09-15T08:30:22.164Z,15.10
2022-09-15T08:32:49.772Z,15.20
2022-09-15T08:35:17.587Z,15.30
2022-09-15T08:37:44.445Z,15.30
2022-09-15T08:40:22.275Z,15.40
2022-09-15T08:42:55.398Z,15.40
2022-09-15T08:45:27.719Z,15.40
2022-09-15T08:48:00.040Z,15.50
2022-09-15T08:50:38.797Z,15.50
2022-09-15T08:53:28.699Z,15.60
2022-09-15T08:55:58.866Z,15.60
2022-09-15T08:58:35.552Z,15.60
2022-09-15T09:01:11.312Z,15.70
2022-09-15T09:04:03.791Z,15.70
2022-09-15T09:06:56.644Z,15.80
2022-09-15T09:09:42.297Z,15.80
2022-09-15T09:12:54.216Z,15.90
2022-09-15T09:15:41.890Z,16.00
2022-09-15T09:18:46.750Z,16.00
2022-09-15T09:21:13.411Z,16.10
2022-09-15T09:24:13.922Z,16.20
2022-09-15T09:26:40.560Z,16.20
2022-09-15T09:29:19.554Z,16.20
2022-09-15T09:31:48.627Z,16.30
2022-09-15T09:34:45.572Z,16.40
2022-09-15T09:37:15.774Z,16.50
2022-09-15T09:39:42.622Z,16.50
2022-09-15T09:42:16.335Z,16.50
2022-09-15T09:44:43.297Z,16.60
2022-09-15T09:47:10.140Z,16.70
2022-09-15T09:49:43.045Z,16.70
2022-09-15T09:52:09.677Z,16.80
2022-09-15T09:54:37.008Z,16.90
2022-09-15T09:57:39.915Z,16.90
2022-09-15T10:00:36.735Z,17.00
2022-09-15T10:03:18.326Z,17.00
2022-09-15T10:05:46.248Z,17.10
2022-09-15T10:08:20.629Z,17.10
2022-09-15T10:10:55.916Z,17.20
2022-09-15T10:13:22.944Z,17.30
2022-09-15T10:15:56.793Z,17.40
2022-09-15T10:18:35.962Z,17.50
2022-09-15T10:21:09.409Z,17.50
2022-09-15T10:23:36.236Z,17.60
2022-09-15T10:26:19.976Z,17.60
2022-09-15T10:29:11.725Z,17.60
2022-09-15T10:31:38.875Z,17.50
2022-09-15T10:34:30.334Z,17.50
2022-09-15T10:37:29.553Z,17.50
2022-09-15T10:39:59.976Z,17.50
2022-09-15T10:42:46.125Z,17.50
2022-09-15T10:45:37.957Z,17.50
2022-09-15T10:48:38.055Z,17.50
2022-09-15T10:51:28.178Z,17.60
2022-09-15T10:54:00.798Z,17.60
2022-09-15T10:56:48.231Z,17.60
2022-09-15T10:59:26.807Z,17.60
2022-09-15T11:02:27.348Z,17.60
2022-09-15T11:05:22.510Z,17.60
2022-09-15T11:07:56.757Z,17.60
2022-09-15T11:11:04.428Z,17.60
2022-09-15T11:13:53.347Z,17.60
2022-09-15T11:16:41.303Z,17.60
2022-09-15T11:19:24.553Z,17.60
2022-09-15T11:22:05.893Z,17.60
2022-09-15T11:24:49.687Z,17.60
2022-09-15T11:27:20.067Z,17.70
2022-09-15T11:30:26.328Z,17.70
2022-09-15T11:33:04.165Z,17.70
2022-09-15T11:35:40.284Z,17.70
2022-09-15T11:38:42.723Z,17.70
2022-09-15T11:41:13.616Z,17.70
2022-09-15T11:43:55.359Z,17.70
2022-09-15T11:46:35.736Z,17.70
2022-09-15T11:49:15.021Z,17.80
2022-09-15T11:51:50.657Z,17.80
2022-09-15T11:54:34.690Z,17.70
2022-09-15T11:57:02.863Z,17.80
2022-09-15T11:59:57.724Z,17.90
2022-09-15T12:02:34.975Z,18.00
2022-09-15T12:05:22.114Z,18.10
2022-09-15T12:07:55.003Z,18.20
2022-09-15T12:10:28.729Z,18.30
2022-09-15T12:12:56.412Z,18.40
2022-09-15T12:15:29.378Z,18.40
2022-09-15T12:18:06.590Z,18.50
2022-09-15T12:21:01.045Z,18.50
2022-09-15T12:23:40.941Z,18.50
2022-09-15T12:26:20.980Z,18.50
2022-09-15T12:28:50.798Z,18.40
2022-09-15T12:31:26.404Z,18.40
2022-09-15T12:34:23.159Z,18.30
2022-09-15T12:36:54.230Z,18.30
2022-09-15T12:39:47.726Z,18.10
2022-09-15T12:42:31.447Z,18.10
2022-09-15T12:45:05.840Z,18.00
2022-09-15T12:47:41.592Z,17.90
2022-09-15T12:50:14.502Z,18.00
2022-09-15T12:52:51.507Z,18.00
2022-09-15T12:55:27.629Z,18.20
2022-09-15T12:58:00.623Z,18.30
2022-09-15T13:00:29.185Z,18.40
2022-09-15T13:02:56.533Z,18.40
2022-09-15T13:05:41.478Z,18.50
2022-09-15T13:08:12.715Z,18.60
2022-09-15T13:10:43.753Z,18.60
2022-09-15T13:13:15.168Z,18.50
2022-09-15T13:15:46.571Z,18.40
2022-09-15T13:18:17.958Z,18.30
2022-09-15T13:20:53.805Z,18.20
2022-09-15T13:23:24.992Z,18.20
2022-09-15T13:25:56.419Z,18.10
2022-09-15T13:28:24.053Z,18.00
2022-09-15T13:31:03.907Z,17.90
2022-09-15T13:40:12.979Z,17.70
2022-09-15T13:42:45.965Z,17.60
2022-09-15T13:45:24.037Z,17.60
2022-09-15T13:48:14.779Z,17.60
2022-09-15T13:50:47.407Z,17.60
2022-09-15T13:53:24.137Z,17.50
2022-09-15T13:55:53.666Z,17.40
2022-09-15T14:01:12.610Z,17.30
2022-09-15T14:03:46.356Z,17.30
2022-09-15T14:06:19.514Z,17.30
2022-09-15T14:08:51.652Z,17.20
2022-09-15T14:11:30.369Z,17.20
2022-09-15T14:13:58.439Z,17.10
2022-09-15T14:16:30.134Z,17.10
2022-09-15T14:18:58.307Z,17.10
2022-09-15T14:21:27.944Z,17.10
2022-09-15T14:23:57.120Z,17.00
2022-09-15T14:26:26.870Z,17.00
2022-09-15T14:28:58.006Z,16.90
2022-09-15T14:31:39.058Z,16.90
2022-09-15T14:34:14.533Z,16.90
2022-09-15T14:36:41.553Z,16.80
2022-09-15T14:39:21.443Z,16.80
2022-09-15T14:41:49.101Z,16.80
2022-09-15T14:47:28.619Z,16.80
2022-09-15T14:50:08.059Z,16.80
2022-09-15T14:52:40.261Z,16.80
2022-09-15T14:55:13.947Z,16.70
2022-09-15T15:00:22.844Z,16.70
2022-09-15T15:03:06.928Z,16.70
2022-09-15T15:05:40.536Z,16.70
2022-09-15T15:08:09.507Z,16.70
2022-09-15T15:10:37.112Z,16.70
2022-09-15T15:13:09.625Z,16.70
2022-09-15T15:15:38.902Z,16.70
2022-09-15T15:18:31.002Z,16.70
2022-09-15T15:20:59.083Z,16.70
2022-09-15T15:23:26.692Z,16.70
2022-09-15T15:25:54.136Z,16.60
2022-09-15T15:28:35.926Z,16.60
2022-09-15T15:31:16.159Z,16.60
2022-09-15T15:33:46.691Z,16.60
2022-09-15T15:36:13.755Z,16.50
2022-09-15T15:38:51.052Z,16.50
2022-09-15T15:41:31.282Z,16.40
2022-09-15T15:44:22.499Z,16.40
2022-09-15T15:46:49.825Z,16.40
2022-09-15T15:49:17.886Z,16.40
2022-09-15T15:51:44.812Z,16.30
2022-09-15T15:54:12.031Z,16.30
2022-09-15T15:56:39.162Z,16.30
2022-09-15T15:59:06.246Z,16.20
2022-09-15T16:01:33.602Z,16.30
2022-09-15T16:04:00.588Z,16.30
2022-09-15T16:06:27.717Z,16.30
2022-09-15T16:08:58.103Z,16.20
2022-09-15T16:11:25.070Z,16.20
2022-09-15T16:13:52.527Z,16.30
2022-09-15T16:16:25.230Z,16.30
2022-09-15T16:18:52.373Z,16.40
2022-09-15T16:21:28.218Z,16.30
2022-09-15T16:23:55.098Z,16.40
2022-09-15T16:26:23.618Z,16.30
2022-09-15T16:28:51.174Z,16.30
2022-09-15T16:31:17.862Z,16.40
2022-09-15T16:33:45.496Z,16.40
2022-09-15T16:36:13.878Z,16.40
2022-09-15T16:38:41.233Z,16.40
2022-09-15T16:41:26.949Z,16.40
2022-09-15T16:43:55.756Z,16.40
2022-09-15T16:46:22.718Z,16.30
2022-09-15T16:48:49.382Z,16.30
2022-09-15T16:51:31.430Z,16.30
2022-09-15T16:53:58.786Z,16.30
2022-09-15T16:56:25.453Z,16.20
2022-09-15T16:58:58.828Z,16.20
2022-09-15T17:01:26.863Z,16.20
2022-09-15T17:03:53.686Z,16.20
2022-09-15T17:06:21.995Z,16.20
2022-09-15T17:08:48.987Z,16.20
2022-09-15T17:11:18.775Z,16.20
2022-09-15T17:13:46.397Z,16.20
2022-09-15T17:16:15.334Z,16.20
2022-09-15T17:18:42.099Z,16.10
2022-09-15T17:21:12.389Z,16.10
2022-09-15T17:23:44.475Z,16.00
2022-09-15T17:26:13.565Z,16.00
2022-09-15T17:28:41.042Z,16.00
2022-09-15T17:31:19.630Z,16.00
2022-09-15T17:33:47.958Z,15.90
2022-09-15T17:36:14.934Z,15.90
2022-09-15T17:38:41.675Z,15.80
2022-09-15T17:41:19.867Z,15.80
2022-09-15T17:43:47.125Z,15.70
2022-09-15T17:46:14.134Z,15.70
2022-09-15T17:48:40.887Z,15.60
2022-09-15T17:51:09.577Z,15.60
2022-09-15T17:53:36.402Z,15.60
2022-09-15T17:56:03.250Z,15.50
2022-09-15T17:58:31.365Z,15.40
2022-09-15T18:00:58.729Z,15.40
2022-09-15T18:03:34.910Z,15.40
2022-09-15T18:06:07.419Z,15.40
2022-09-15T18:08:35.852Z,15.40
2022-09-15T18:11:03.969Z,15.30
2022-09-15T18:13:31.251Z,15.30
2022-09-15T18:16:05.036Z,15.30
2022-09-15T18:18:31.922Z,15.20
2022-09-15T18:20:58.862Z,15.20
2022-09-15T18:23:30.834Z,15.20
2022-09-15T18:25:57.616Z,15.10
2022-09-15T18:28:24.311Z,15.10
2022-09-15T18:30:51.634Z,15.10
2022-09-15T18:33:23.681Z,15.00
2022-09-15T18:35:52.885Z,14.90
2022-09-15T18:38:20.604Z,14.90
2022-09-15T18:40:53.444Z,14.90
2022-09-15T18:43:21.294Z,14.80
2022-09-15T18:45:48.859Z,14.80
2022-09-15T18:48:16.000Z,14.80
2022-09-15T18:50:44.573Z,14.70
2022-09-15T18:53:11.928Z,14.70
2022-09-15T18:55:41.470Z,14.70
2022-09-15T18:58:08.760Z,14.60
2022-09-15T19:00:35.959Z,14.60
2022-09-15T19:03:05.154Z,14.60
2022-09-15T19:05:33.204Z,14.50
2022-09-15T19:08:00.394Z,14.50
2022-09-15T19:10:27.372Z,14.40
2022-09-15T19:12:54.665Z,14.40
2022-09-15T19:15:23.616Z,14.40
2022-09-15T19:17:51.286Z,14.40
2022-09-15T19:20:18.613Z,14.30
2022-09-15T19:22:46.023Z,14.30
2022-09-15T19:25:13.419Z,14.30
2022-09-15T19:27:41.251Z,14.20
2022-09-15T19:30:10.033Z,14.20
2022-09-15T19:32:38.215Z,14.20
2022-09-15T19:35:05.313Z,14.10
2022-09-15T19:37:35.545Z,14.10
2022-09-15T19:40:03.606Z,14.10
2022-09-15T19:42:30.479Z,14.10
2022-09-15T19:44:57.133Z,14.10
2022-09-15T19:47:24.010Z,14.00
2022-09-15T19:49:52.162Z,14.00
2022-09-15T19:52:18.807Z,13.90
2022-09-15T19:54:45.443Z,13.90
2022-09-15T19:57:12.262Z,13.90
2022-09-15T19:59:39.011Z,13.80
2022-09-15T20:02:05.785Z,13.80
2022-09-15T20:04:32.550Z,13.80
2022-09-15T20:06:59.244Z,13.80
2022-09-15T20:09:26.299Z,13.70
2022-09-15T20:11:53.091Z,13.70
2022-09-15T20:14:19.719Z,13.70
2022-09-15T20:16:46.443Z,13.60
2022-09-15T20:19:13.184Z,13.60
2022-09-15T20:21:55.811Z,13.60
2022-09-15T20:24:23.708Z,13.60
2022-09-15T20:26:51.184Z,13.50
2022-09-15T20:29:18.432Z,13.50
2022-09-15T20:31:45.560Z,13.50
2022-09-15T20:34:12.287Z,13.50
2022-09-15T20:36:39.371Z,13.50
2022-09-15T20:39:13.036Z,13.40
2022-09-15T20:41:40.670Z,13.40
2022-09-15T20:44:10.144Z,13.40
2022-09-15T20:46:37.177Z,13.40
2022-09-15T20:49:08.971Z,13.30
2022-09-15T20:51:35.709Z,13.30
2022-09-15T20:54:04.266Z,13.30
2022-09-15T20:56:34.611Z,13.30
2022-09-15T20:59:01.249Z,13.30
2022-09-15T21:01:31.948Z,13.20
2022-09-15T21:03:59.037Z,13.20
2022-09-15T21:06:27.975Z,13.20
2022-09-15T21:08:56.473Z,13.20
2022-09-15T21:11:24.042Z,13.10
2022-09-15T21:13:50.847Z,13.20
2022-09-15T21:16:20.632Z,13.10
2022-09-15T21:18:48.453Z,13.10
2022-09-15T21:21:21.672Z,13.10
2022-09-15T21:23:51.586Z,13.10
2022-09-15T21:26:26.865Z,13.10
2022-09-15T21:28:55.334Z,13.10
2022-09-15T21:31:25.415Z,13.10
2022-09-15T21:33:53.691Z,13.00
2022-09-15T21:36:29.483Z,13.00
2022-09-15T21:38:57.483Z,13.00
2022-09-15T21:41:29.061Z,13.00
2022-09-15T21:43:57.983Z,13.00
2022-09-15T21:46:27.381Z,13.00
2022-09-15T21:48:56.383Z,13.00
2022-09-15T21:51:24.985Z,13.00
2022-09-15T21:53:53.996Z,13.00
2022-09-15T21:56:21.844Z,12.90
2022-09-15T21:58:48.865Z,12.90
2022-09-15T22:01:27.827Z,12.90
2022-09-15T22:03:57.300Z,12.80
2022-09-15T22:06:27.735Z,12.80
2022-09-15T22:08:55.350Z,12.80
2022-09-15T22:11:22.685Z,12.80
2022-09-15T22:13:49.838Z,12.70
2022-09-15T22:16:19.747Z,12.70
2022-09-15T22:18:47.695Z,12.70
2022-09-15T22:21:17.391Z,12.70
2022-09-15T22:23:44.914Z,12.70
2022-09-15T22:26:15.141Z,12.70
2022-09-15T22:28:42.095Z,12.60
2022-09-15T22:31:10.740Z,12.60
2022-09-15T22:33:39.488Z,12.60
2022-09-15T22:36:12.688Z,12.60
2022-09-15T22:38:39.382Z,12.60
2022-09-15T22:41:09.155Z,12.50
2022-09-15T22:43:36.439Z,12.50
2022-09-15T22:46:03.302Z,12.50
2022-09-15T22:48:30.051Z,12.50
2022-09-15T22:50:56.696Z,12.50
2022-09-15T22:53:23.514Z,12.40
2022-09-15T22:55:51.254Z,12.40
2022-09-15T22:58:18.040Z,12.40
2022-09-15T23:00:45.163Z,12.40
2022-09-15T23:03:12.234Z,12.40
2022-09-15T23:05:38.986Z,12.40
2022-09-15T23:08:05.654Z,12.30
2022-09-15T23:10:33.280Z,12.30
2022-09-15T23:12:59.942Z,12.30
2022-09-15T23:15:27.188Z,12.30
2022-09-15T23:17:53.903Z,12.30
2022-09-15T23:20:20.907Z,12.20
2022-09-15T23:22:47.532Z,12.20
2022-09-15T23:25:14.333Z,12.20
2022-09-15T23:27:40.947Z,12.20
2022-09-15T23:30:08.167Z,12.10
2022-09-15T23:32:34.827Z,12.10
2022-09-15T23:35:03.845Z,12.10
2022-09-15T23:37:30.604Z,12.00
2022-09-15T23:39:57.436Z,12.00
2022-09-15T23:42:24.200Z,12.00
2022-09-15T23:44:50.825Z,12.00
2022-09-15T23:47:17.495Z,11.90
2022-09-15T23:49:44.224Z,12.00
2022-09-15T23:52:10.865Z,12.00
2022-09-15T23:54:37.506Z,11.90
2022-09-15T23:57:04.296Z,11.90
2022-09-15T23:59:30.916Z,11.90
